createdAt,value
2023-04-19T00:00:39.294Z,94232.09
2023-04-19T00:02:42.847Z,94228.53
2023-04-19T00:04:45.464Z,94227.38
2023-04-19T00:06:47.469Z,94228.22
2023-04-19T00:08:49.047Z,94222.31
2023-04-19T00:10:50.513Z,94226.75
2023-04-19T00:12:52.133Z,94233.94
2023-04-19T00:14:53.679Z,94230.66
2023-04-19T00:16:55.239Z,94223.47
2023-04-19T00:18:56.729Z,94224.25
2023-04-19T00:20:58.268Z,94224.88
2023-04-19T00:22:59.796Z,94220.50
2023-04-19T00:25:01.465Z,94216.38
2023-04-19T00:27:03.826Z,94224.59
2023-04-19T00:29:05.387Z,94219.66
2023-04-19T00:31:06.923Z,94220.34
2023-04-19T00:33:13.071Z,94219.34
2023-04-19T00:35:15.042Z,94215.59
2023-04-19T00:37:16.517Z,94214.28
2023-04-19T00:39:18.064Z,94214.72
2023-04-19T00:41:19.608Z,94216.47
2023-04-19T00:43:21.227Z,94211.56
2023-04-19T00:45:22.680Z,94211.00
2023-04-19T00:47:24.169Z,94209.00
2023-04-19T00:49:26.138Z,94210.47
2023-04-19T00:51:27.850Z,94209.28
2023-04-19T00:53:29.355Z,94201.72
2023-04-19T00:55:30.911Z,94209.88
2023-04-19T00:57:32.445Z,94212.44
2023-04-19T00:59:34.803Z,94200.44
2023-04-19T01:01:36.598Z,94202.88
2023-04-19T01:03:38.479Z,94212.31
2023-04-19T01:05:40.279Z,94201.47
2023-04-19T01:07:42.165Z,94205.84
2023-04-19T01:09:44.039Z,94197.84
2023-04-19T01:11:45.541Z,94196.38
2023-04-19T01:13:47.061Z,94194.84
2023-04-19T01:15:48.757Z,94195.69
2023-04-19T01:17:50.301Z,94190.78
2023-04-19T01:19:58.750Z,94191.94
2023-04-19T01:22:00.523Z,94188.97
2023-04-19T01:24:01.982Z,94188.16
2023-04-19T01:26:03.478Z,94194.94
2023-04-19T01:28:05.245Z,94192.31
2023-04-19T01:30:07.243Z,94196.06
2023-04-19T01:32:08.793Z,94193.91
2023-04-19T01:34:10.399Z,94197.34
2023-04-19T01:36:13.132Z,94192.56
2023-04-19T01:38:15.065Z,94196.84
2023-04-19T01:40:16.758Z,94193.19
2023-04-19T01:42:18.306Z,94196.75
2023-04-19T01:44:19.771Z,94195.16
2023-04-19T01:46:21.330Z,94202.53
2023-04-19T01:48:22.936Z,94193.53
2023-04-19T01:50:24.426Z,94193.38
2023-04-19T01:52:25.884Z,94195.97
2023-04-19T01:54:27.326Z,94196.16
2023-04-19T01:56:28.809Z,94189.44
2023-04-19T01:58:30.385Z,94192.22
2023-04-19T02:00:31.881Z,94190.59
2023-04-19T02:02:33.402Z,94195.28
2023-04-19T02:04:35.040Z,94194.66
2023-04-19T02:06:36.573Z,94189.25
2023-04-19T02:08:38.544Z,94186.03
2023-04-19T02:10:40.064Z,94194.44
2023-04-19T02:12:41.972Z,94192.00
2023-04-19T02:14:43.467Z,94193.69
2023-04-19T02:16:44.938Z,94195.03
2023-04-19T02:18:46.942Z,94205.66
2023-04-19T02:20:48.503Z,94196.16
2023-04-19T02:22:49.943Z,94196.97
2023-04-19T02:24:51.500Z,94185.00
2023-04-19T02:26:53.136Z,94188.41
2023-04-19T02:28:54.622Z,94184.63
2023-04-19T02:30:56.317Z,94183.63
2023-04-19T02:32:58.886Z,94178.84
2023-04-19T02:35:00.527Z,94182.47
2023-04-19T02:37:02.330Z,94179.50
2023-04-19T02:39:05.669Z,94175.13
2023-04-19T02:41:07.209Z,94182.78
2023-04-19T02:43:08.704Z,94177.75
2023-04-19T02:45:10.382Z,94180.38
2023-04-19T02:47:11.862Z,94183.31
2023-04-19T02:49:13.584Z,94184.59
2023-04-19T02:51:16.660Z,94179.47
2023-04-19T02:53:18.153Z,94178.00
2023-04-19T02:55:19.631Z,94178.97
2023-04-19T02:57:21.073Z,94177.66
2023-04-19T02:59:22.561Z,94179.59
2023-04-19T03:01:24.225Z,94180.13
2023-04-19T03:03:25.795Z,94184.19
2023-04-19T03:05:27.322Z,94179.09
2023-04-19T03:07:28.869Z,94178.94
2023-04-19T03:09:30.635Z,94179.38
2023-04-19T03:11:32.108Z,94181.31
2023-04-19T03:13:33.671Z,94181.47
2023-04-19T03:15:35.306Z,94178.41
2023-04-19T03:17:37.716Z,94174.47
2023-04-19T03:19:39.350Z,94183.59
2023-04-19T03:21:41.425Z,94182.59
2023-04-19T03:23:42.884Z,94176.34
2023-04-19T03:25:44.373Z,94176.72
2023-04-19T03:27:47.998Z,94166.25
2023-04-19T03:29:49.532Z,94173.31
2023-04-19T03:31:51.087Z,94169.88
2023-04-19T03:33:52.574Z,94172.63
2023-04-19T03:35:54.243Z,94180.13
2023-04-19T03:37:55.896Z,94170.81
2023-04-19T03:39:57.342Z,94176.84
2023-04-19T03:41:58.865Z,94169.44
2023-04-19T03:44:00.412Z,94171.25
2023-04-19T03:46:02.190Z,94176.00
2023-04-19T03:48:03.824Z,94177.00
2023-04-19T03:50:05.465Z,94170.16
2023-04-19T03:52:06.985Z,94180.13
2023-04-19T03:54:08.501Z,94174.25
2023-04-19T03:56:10.046Z,94172.44
2023-04-19T03:58:11.736Z,94177.50
2023-04-19T04:00:13.552Z,94173.72
2023-04-19T04:02:15.129Z,94177.38
2023-04-19T04:04:17.130Z,94172.44
2023-04-19T04:06:18.955Z,94176.56
2023-04-19T04:08:20.542Z,94175.47
2023-04-19T04:10:22.170Z,94173.75
2023-04-19T04:12:23.666Z,94177.50
2023-04-19T04:14:25.179Z,94182.75
2023-04-19T04:16:26.730Z,94178.63
2023-04-19T04:18:28.731Z,94177.66
2023-04-19T04:20:30.742Z,94184.03
2023-04-19T04:22:32.893Z,94185.34
2023-04-19T04:24:41.533Z,94181.94
2023-04-19T04:26:43.168Z,94187.50
2023-04-19T04:28:44.627Z,94188.81
2023-04-19T04:30:46.102Z,94199.09
2023-04-19T04:32:47.700Z,94197.44
2023-04-19T04:34:49.224Z,94198.38
2023-04-19T04:36:50.715Z,94196.00
2023-04-19T04:38:52.242Z,94201.19
2023-04-19T04:40:57.095Z,94204.72
2023-04-19T04:43:00.994Z,94197.84
2023-04-19T04:45:02.552Z,94200.16
2023-04-19T04:47:03.980Z,94203.34
2023-04-19T04:49:05.488Z,94196.91
2023-04-19T04:51:07.347Z,94194.09
2023-04-19T04:53:11.096Z,94191.94
2023-04-19T04:55:14.407Z,94190.34
2023-04-19T04:57:16.041Z,94203.94
2023-04-19T04:59:17.499Z,94198.28
2023-04-19T05:01:19.658Z,94191.59
2023-04-19T05:03:21.225Z,94196.66
2023-04-19T05:05:22.845Z,94195.03
2023-04-19T05:07:24.393Z,94196.81
2023-04-19T05:09:25.918Z,94198.78
2023-04-19T05:11:27.402Z,94200.25
2023-04-19T05:13:28.834Z,94203.84
2023-04-19T05:15:30.873Z,94203.66
2023-04-19T05:17:32.443Z,94204.81
2023-04-19T05:19:34.036Z,94204.31
2023-04-19T05:21:35.512Z,94206.28
2023-04-19T05:23:37.842Z,94202.84
2023-04-19T05:25:39.326Z,94212.53
2023-04-19T05:27:40.867Z,94210.03
2023-04-19T05:29:42.406Z,94204.16
2023-04-19T05:31:43.964Z,94208.59
2023-04-19T05:33:45.484Z,94200.38
2023-04-19T05:35:47.061Z,94208.91
2023-04-19T05:37:48.602Z,94220.00
2023-04-19T05:39:50.311Z,94214.41
2023-04-19T05:41:51.876Z,94217.59
2023-04-19T05:43:53.428Z,94213.31
2023-04-19T05:45:54.961Z,94208.16
2023-04-19T05:47:56.705Z,94210.16
2023-04-19T05:49:58.237Z,94219.69
2023-04-19T05:51:59.741Z,94209.78
2023-04-19T05:54:01.333Z,94209.63
2023-04-19T05:56:02.783Z,94208.88
2023-04-19T05:58:04.249Z,94220.09
2023-04-19T06:00:06.119Z,94215.56
2023-04-19T06:02:07.765Z,94215.13
2023-04-19T06:04:09.521Z,94215.94
2023-04-19T06:06:11.180Z,94214.13
2023-04-19T06:08:12.748Z,94223.13
2023-04-19T06:10:14.275Z,94218.72
2023-04-19T06:12:15.947Z,94218.19
2023-04-19T06:14:17.922Z,94215.94
2023-04-19T06:16:19.947Z,94217.34
2023-04-19T06:18:21.434Z,94212.88
2023-04-19T06:20:22.922Z,94213.88
2023-04-19T06:22:24.436Z,94225.16
2023-04-19T06:24:25.945Z,94213.00
2023-04-19T06:26:27.527Z,94221.84
2023-04-19T06:28:28.991Z,94214.16
2023-04-19T06:30:30.542Z,94218.44
2023-04-19T06:32:32.032Z,94217.94
2023-04-19T06:34:33.630Z,94213.16
2023-04-19T06:36:35.078Z,94221.16
2023-04-19T06:38:38.458Z,94220.47
2023-04-19T06:40:40.060Z,94229.31
2023-04-19T06:42:41.546Z,94221.88
2023-04-19T06:44:43.006Z,94221.84
2023-04-19T06:46:44.491Z,94219.34
2023-04-19T06:48:46.025Z,94226.53
2023-04-19T06:50:47.564Z,94223.56
2023-04-19T06:52:49.093Z,94230.78
2023-04-19T06:54:50.803Z,94231.91
2023-04-19T06:56:52.393Z,94232.41
2023-04-19T06:58:53.948Z,94235.44
2023-04-19T07:00:55.569Z,94234.00
2023-04-19T07:02:57.266Z,94238.94
2023-04-19T07:04:58.809Z,94236.25
2023-04-19T07:07:00.517Z,94231.81
2023-04-19T07:09:02.614Z,94233.09
2023-04-19T07:11:05.212Z,94229.75
2023-04-19T07:13:06.766Z,94229.53
2023-04-19T07:15:08.519Z,94232.94
2023-04-19T07:17:10.040Z,94235.25
2023-04-19T07:19:11.652Z,94237.56
2023-04-19T07:21:13.224Z,94232.47
2023-04-19T07:23:15.109Z,94235.25
2023-04-19T07:25:16.632Z,94233.25
2023-04-19T07:27:18.783Z,94243.59
2023-04-19T07:29:20.453Z,94249.03
2023-04-19T07:31:21.991Z,94248.28
2023-04-19T07:33:25.868Z,94252.84
2023-04-19T07:35:28.831Z,94240.34
2023-04-19T07:37:30.517Z,94239.97
2023-04-19T07:39:32.080Z,94242.56
2023-04-19T07:41:34.480Z,94238.25
2023-04-19T07:43:39.192Z,94240.69
2023-04-19T07:45:41.520Z,94234.81
2023-04-19T07:47:43.168Z,94235.53
2023-04-19T07:49:44.664Z,94234.19
2023-04-19T07:51:46.198Z,94241.41
2023-04-19T07:53:48.291Z,94237.56
2023-04-19T07:55:49.832Z,94239.22
2023-04-19T07:57:51.317Z,94239.22
2023-04-19T07:59:57.879Z,94241.78
2023-04-19T08:01:59.542Z,94240.88
2023-04-19T08:04:01.357Z,94237.63
2023-04-19T08:06:08.229Z,94237.13
2023-04-19T08:08:09.806Z,94244.09
2023-04-19T08:10:11.501Z,94237.25
2023-04-19T08:12:23.098Z,94234.09
2023-04-19T08:14:43.848Z,94236.50
2023-04-19T08:18:53.680Z,94240.63
2023-04-19T08:20:56.558Z,94240.16
2023-04-19T08:23:00.549Z,94238.34
2023-04-19T08:25:04.142Z,94237.63
2023-04-19T08:27:05.790Z,94234.16
2023-04-19T08:29:07.389Z,94246.91
2023-04-19T08:31:08.934Z,94240.59
2023-04-19T08:33:10.958Z,94241.53
2023-04-19T08:35:13.320Z,94237.88
2023-04-19T08:37:14.866Z,94237.25
2023-04-19T08:39:29.212Z,94232.88
2023-04-19T08:41:33.689Z,94227.56
2023-04-19T08:43:35.887Z,94230.28
2023-04-19T08:45:37.568Z,94227.56
2023-04-19T08:49:44.773Z,94224.50
2023-04-19T08:51:47.273Z,94226.59
2023-04-19T08:53:49.711Z,94227.94
2023-04-19T08:56:08.672Z,94222.16
2023-04-19T08:58:18.970Z,94211.91
2023-04-19T09:00:28.150Z,94214.38
2023-04-19T09:02:29.949Z,94224.59
2023-04-19T09:04:36.752Z,94217.00
2023-04-19T09:06:39.588Z,94223.53
2023-04-19T09:08:41.965Z,94213.19
2023-04-19T09:10:46.104Z,94214.38
2023-04-19T09:13:01.149Z,94218.91
2023-04-19T09:15:04.537Z,94214.31
2023-04-19T09:17:16.313Z,94203.44
2023-04-19T09:19:24.112Z,94205.19
2023-04-19T09:21:30.736Z,94200.69
2023-04-19T09:23:32.198Z,94197.28
2023-04-19T09:25:43.689Z,94202.22
2023-04-19T09:27:54.229Z,94206.41
2023-04-19T09:29:56.371Z,94203.88
2023-04-19T09:31:59.012Z,94212.03
2023-04-19T09:34:14.239Z,94208.22
2023-04-19T09:36:29.135Z,94199.25
2023-04-19T09:38:30.600Z,94192.94
2023-04-19T09:40:32.127Z,94202.44
2023-04-19T09:47:02.299Z,94191.84
2023-04-19T09:49:36.933Z,94190.81
2023-04-19T09:51:46.259Z,94186.94
2023-04-19T09:53:47.790Z,94183.06
2023-04-19T09:56:00.455Z,94183.72
2023-04-19T09:58:04.001Z,94179.19
2023-04-19T10:00:09.023Z,94179.66
2023-04-19T10:02:10.654Z,94184.47
2023-04-19T10:04:25.878Z,94172.31
2023-04-19T10:06:51.706Z,94168.59
2023-04-19T10:08:57.139Z,94164.25
2023-04-19T10:10:59.234Z,94169.22
2023-04-19T10:15:06.099Z,94166.81
2023-04-19T10:17:07.705Z,94168.94
2023-04-19T10:19:10.331Z,94175.22
2023-04-19T10:21:12.185Z,94171.69
2023-04-19T10:23:13.694Z,94168.47
2023-04-19T10:25:15.913Z,94169.72
2023-04-19T10:27:17.399Z,94177.44
2023-04-19T10:29:38.874Z,94163.16
2023-04-19T10:31:40.347Z,94158.13
2023-04-19T10:33:42.159Z,94150.03
2023-04-19T10:35:44.672Z,94153.56
2023-04-19T10:38:18.340Z,94161.81
2023-04-19T10:40:39.785Z,94147.47
2023-04-19T10:43:01.530Z,94160.75
2023-04-19T10:45:21.732Z,94145.41
2023-04-19T10:47:43.657Z,94150.00
2023-04-19T10:49:46.232Z,94147.88
2023-04-19T10:51:49.149Z,94138.13
2023-04-19T10:53:51.596Z,94145.84
2023-04-19T10:55:53.118Z,94137.13
2023-04-19T10:58:04.639Z,94137.19
2023-04-19T11:00:18.823Z,94134.31
2023-04-19T11:02:23.853Z,94120.53
2023-04-19T11:04:27.519Z,94123.50
2023-04-19T11:06:29.565Z,94123.16
2023-04-19T11:08:33.896Z,94127.81
2023-04-19T11:10:36.442Z,94123.91
2023-04-19T11:12:43.419Z,94124.31
2023-04-19T11:14:45.786Z,94123.94
2023-04-19T11:16:47.333Z,94121.03
2023-04-19T11:18:48.878Z,94125.16
2023-04-19T11:20:53.126Z,94128.66
2023-04-19T11:22:56.827Z,94122.63
2023-04-19T11:25:08.112Z,94116.41
2023-04-19T11:27:09.855Z,94123.38
2023-04-19T11:29:11.622Z,94110.78
2023-04-19T11:31:13.173Z,94120.28
2023-04-19T11:33:14.709Z,94124.78
2023-04-19T11:35:19.133Z,94125.97
2023-04-19T11:37:20.622Z,94112.72
2023-04-19T11:39:22.254Z,94121.16
2023-04-19T11:41:23.779Z,94114.59
2023-04-19T11:43:25.212Z,94121.75
2023-04-19T11:45:32.058Z,94109.38
2023-04-19T11:47:36.423Z,94106.75
2023-04-19T11:49:37.941Z,94113.41
2023-04-19T11:51:43.103Z,94110.19
2023-04-19T11:53:44.631Z,94109.41
2023-04-19T11:55:46.974Z,94100.28
2023-04-19T11:57:48.440Z,94101.66
2023-04-19T12:00:07.676Z,94099.28
2023-04-19T12:02:10.422Z,94099.84
2023-04-19T12:04:12.296Z,94111.00
2023-04-19T12:06:15.184Z,94088.22
2023-04-19T12:08:16.713Z,94098.03
2023-04-19T12:10:18.201Z,94091.75
2023-04-19T12:12:32.340Z,94089.13
2023-04-19T12:14:34.352Z,94098.44
2023-04-19T12:16:35.923Z,94081.59
2023-04-19T12:18:44.668Z,94088.72
2023-04-19T12:20:46.974Z,94114.97
2023-04-19T12:22:48.378Z,94090.75
2023-04-19T12:24:56.151Z,94093.00
2023-04-19T12:26:57.800Z,94081.63
2023-04-19T12:29:01.082Z,94083.25
2023-04-19T12:31:02.661Z,94081.97
2023-04-19T12:33:04.329Z,94079.16
2023-04-19T12:35:06.965Z,94076.53
2023-04-19T12:37:08.560Z,94083.63
2023-04-19T12:39:10.127Z,94080.97
2023-04-19T12:41:11.720Z,94080.19
2023-04-19T12:43:13.253Z,94075.88
2023-04-19T12:45:14.959Z,94079.53
2023-04-19T12:47:16.538Z,94082.22
2023-04-19T12:49:18.832Z,94080.56
2023-04-19T12:51:20.363Z,94077.53
2023-04-19T12:53:24.295Z,94078.16
2023-04-19T12:55:25.794Z,94083.03
2023-04-19T12:57:27.253Z,94095.59
2023-04-19T12:59:28.760Z,94087.81
2023-04-19T13:01:30.476Z,94084.25
2023-04-19T13:03:33.350Z,94088.63
2023-04-19T13:05:35.002Z,94095.44
2023-04-19T13:07:36.751Z,94103.19
2023-04-19T13:09:38.226Z,94097.44
2023-04-19T13:11:39.745Z,94110.78
2023-04-19T13:13:41.209Z,94113.66
2023-04-19T13:15:42.989Z,94116.84
2023-04-19T13:17:44.739Z,94113.50
2023-04-19T13:19:46.454Z,94118.09
2023-04-19T13:21:47.910Z,94124.84
2023-04-19T13:23:49.457Z,94114.66
2023-04-19T13:25:51.024Z,94116.97
2023-04-19T13:27:52.633Z,94111.34
2023-04-19T13:29:57.195Z,94115.16
2023-04-19T13:31:58.660Z,94113.78
2023-04-19T13:34:00.709Z,94110.25
2023-04-19T13:36:02.294Z,94108.78
2023-04-19T13:38:03.898Z,94106.50
2023-04-19T13:40:18.165Z,94109.44
2023-04-19T13:42:21.004Z,94111.63
2023-04-19T13:44:22.568Z,94104.19
2023-04-19T13:46:24.155Z,94112.31
2023-04-19T13:48:28.829Z,94098.63
2023-04-19T13:50:30.502Z,94106.66
2023-04-19T13:52:32.046Z,94104.16
2023-04-19T13:54:33.565Z,94108.53
2023-04-19T13:56:35.162Z,94103.34
2023-04-19T13:58:37.274Z,94103.41
2023-04-19T14:00:38.725Z,94109.47
2023-04-19T14:02:40.500Z,94107.59
2023-04-19T14:04:42.144Z,94104.47
2023-04-19T14:06:43.796Z,94104.00
2023-04-19T14:08:45.276Z,94095.41
2023-04-19T14:10:46.792Z,94096.47
2023-04-19T14:12:49.141Z,94093.09
2023-04-19T14:14:50.697Z,94104.59
2023-04-19T14:16:52.228Z,94092.84
2023-04-19T14:18:53.761Z,94093.22
2023-04-19T14:20:55.248Z,94094.16
2023-04-19T14:22:59.123Z,94087.75
2023-04-19T14:25:00.655Z,94088.63
2023-04-19T14:29:06.698Z,94090.88
2023-04-19T14:31:08.188Z,94081.78
2023-04-19T14:33:09.862Z,94083.19
2023-04-19T14:35:12.124Z,94087.47
2023-04-19T14:37:13.617Z,94089.09
2023-04-19T14:39:15.658Z,94093.13
2023-04-19T14:41:17.593Z,94089.75
2023-04-19T14:43:19.083Z,94083.09
2023-04-19T14:45:20.819Z,94091.41
2023-04-19T14:47:22.506Z,94091.78
2023-04-19T14:49:24.050Z,94099.28
2023-04-19T14:51:25.476Z,94099.63
2023-04-19T14:53:27.010Z,94101.34
2023-04-19T14:55:28.503Z,94102.00
2023-04-19T14:57:30.073Z,94100.88
2023-04-19T14:59:31.633Z,94101.53
2023-04-19T15:01:33.155Z,94091.25
2023-04-19T15:03:34.839Z,94102.69
2023-04-19T15:05:36.724Z,94098.53
2023-04-19T15:07:38.463Z,94094.75
2023-04-19T15:09:41.204Z,94100.66
2023-04-19T15:11:42.766Z,94099.47
2023-04-19T15:13:44.253Z,94109.69
2023-04-19T15:15:45.759Z,94113.34
2023-04-19T15:17:47.355Z,94110.91
2023-04-19T15:19:48.864Z,94108.84
2023-04-19T15:21:50.449Z,94106.56
2023-04-19T15:23:52.011Z,94110.34
2023-04-19T15:25:53.637Z,94110.09
2023-04-19T15:27:55.574Z,94111.69
2023-04-19T15:29:57.011Z,94119.16
2023-04-19T15:31:58.649Z,94124.94
2023-04-19T15:34:03.066Z,94124.22
2023-04-19T15:36:04.688Z,94133.38
2023-04-19T15:38:06.238Z,94128.94
2023-04-19T15:40:09.855Z,94138.44
2023-04-19T15:42:11.653Z,94122.88
2023-04-19T15:44:13.400Z,94119.84
2023-04-19T15:46:15.282Z,94123.63
2023-04-19T15:48:16.846Z,94121.94
2023-04-19T15:50:18.385Z,94126.94
2023-04-19T15:52:20.106Z,94121.97
2023-04-19T15:54:23.053Z,94131.94
2023-04-19T15:56:24.542Z,94120.72
2023-04-19T15:58:26.996Z,94124.53
2023-04-19T16:00:29.294Z,94127.09
2023-04-19T16:02:31.282Z,94134.25
2023-04-19T16:04:33.070Z,94126.97
2023-04-19T16:06:34.621Z,94126.94
2023-04-19T16:08:36.262Z,94126.00
2023-04-19T16:10:38.755Z,94124.50
2023-04-19T16:12:40.304Z,94127.44
2023-04-19T16:14:41.787Z,94129.22
2023-04-19T16:16:43.291Z,94129.91
2023-04-19T16:18:44.847Z,94129.66
2023-04-19T16:20:46.341Z,94136.66
2023-04-19T16:22:47.885Z,94140.56
2023-04-19T16:24:49.338Z,94136.84
2023-04-19T16:26:50.789Z,94143.44
2023-04-19T16:28:52.416Z,94140.28
2023-04-19T16:30:54.015Z,94149.19
2023-04-19T16:32:55.819Z,94148.34
2023-04-19T16:34:57.334Z,94160.44
2023-04-19T16:36:58.889Z,94154.13
2023-04-19T16:39:00.383Z,94151.28
2023-04-19T16:41:04.593Z,94153.47
2023-04-19T16:43:06.533Z,94152.22
2023-04-19T16:45:08.418Z,94151.84
2023-04-19T16:47:09.919Z,94151.44
2023-04-19T16:49:12.047Z,94149.47
2023-04-19T16:51:13.573Z,94157.88
2023-04-19T16:53:15.331Z,94152.13
2023-04-19T16:55:16.781Z,94158.81
2023-04-19T16:57:18.515Z,94158.31
2023-04-19T16:59:20.058Z,94157.16
2023-04-19T17:01:21.596Z,94167.03
2023-04-19T17:03:23.615Z,94167.84
2023-04-19T17:05:25.329Z,94172.47
2023-04-19T17:07:26.818Z,94168.66
2023-04-19T17:09:28.493Z,94166.59
2023-04-19T17:11:32.619Z,94187.00
2023-04-19T17:13:34.107Z,94190.75
2023-04-19T17:15:37.173Z,94193.31
2023-04-19T17:17:38.819Z,94192.84
2023-04-19T17:19:40.418Z,94198.78
2023-04-19T17:21:41.926Z,94200.25
2023-04-19T17:23:44.945Z,94203.72
2023-04-19T17:25:46.452Z,94200.97
2023-04-19T17:27:47.954Z,94199.97
2023-04-19T17:29:49.469Z,94208.41
2023-04-19T17:31:51.022Z,94203.50
2023-04-19T17:33:52.666Z,94213.47
2023-04-19T17:35:54.155Z,94219.88
2023-04-19T17:37:55.772Z,94223.44
2023-04-19T17:39:57.278Z,94225.97
2023-04-19T17:41:58.715Z,94225.63
2023-04-19T17:44:00.205Z,94230.56
2023-04-19T17:46:01.795Z,94230.94
2023-04-19T17:48:03.381Z,94234.75
2023-04-19T17:50:06.702Z,94234.13
2023-04-19T17:52:08.246Z,94232.22
2023-04-19T17:54:09.674Z,94239.84
2023-04-19T17:56:11.131Z,94240.91
2023-04-19T17:58:12.576Z,94240.66
2023-04-19T18:00:14.669Z,94247.34
2023-04-19T18:02:16.192Z,94250.44
2023-04-19T18:04:20.034Z,94260.19
2023-04-19T18:06:21.850Z,94261.22
2023-04-19T18:08:23.359Z,94258.13
2023-04-19T18:10:24.974Z,94250.88
2023-04-19T18:12:26.581Z,94251.34
2023-04-19T18:14:28.144Z,94257.84
2023-04-19T18:16:29.637Z,94258.84
2023-04-19T18:18:31.200Z,94252.59
2023-04-19T18:20:32.731Z,94256.69
2023-04-19T18:22:34.267Z,94260.50
2023-04-19T18:24:35.784Z,94271.16
2023-04-19T18:26:38.889Z,94271.72
2023-04-19T18:28:40.479Z,94274.25
2023-04-19T18:30:42.057Z,94280.69
2023-04-19T18:32:43.650Z,94274.44
2023-04-19T18:34:45.468Z,94284.69
2023-04-19T18:36:46.962Z,94290.91
2023-04-19T18:38:48.481Z,94292.56
2023-04-19T18:40:50.062Z,94295.34
2023-04-19T18:42:51.527Z,94288.94
2023-04-19T18:44:54.616Z,94299.97
2023-04-19T18:46:56.706Z,94288.38
2023-04-19T18:48:58.371Z,94295.38
2023-04-19T18:51:00.064Z,94301.81
2023-04-19T18:53:01.817Z,94298.72
2023-04-19T18:55:03.979Z,94302.63
2023-04-19T18:57:22.531Z,94307.78
2023-04-19T18:59:26.068Z,94305.69
2023-04-19T19:01:27.808Z,94303.34
2023-04-19T19:03:58.030Z,94310.94
2023-04-19T19:05:51.106Z,94316.44
2023-04-19T19:07:52.874Z,94317.34
2023-04-19T19:09:56.563Z,94317.34
2023-04-19T19:11:58.564Z,94318.06
2023-04-19T19:14:00.050Z,94318.47
2023-04-19T19:16:01.704Z,94316.59
2023-04-19T19:18:03.653Z,94321.59
2023-04-19T19:20:06.686Z,94313.44
2023-04-19T19:22:22.331Z,94314.63
2023-04-19T19:24:27.185Z,94320.97
2023-04-19T19:26:28.776Z,94317.75
2023-04-19T19:28:30.265Z,94328.69
2023-04-19T19:30:33.941Z,94324.91
2023-04-19T19:32:35.597Z,94326.06
2023-04-19T19:34:51.259Z,94323.91
2023-04-19T19:36:55.952Z,94326.13
2023-04-19T19:38:57.532Z,94329.94
2023-04-19T19:41:37.040Z,94332.25
2023-04-19T19:43:20.523Z,94329.25
2023-04-19T19:45:22.056Z,94324.63
2023-04-19T19:47:24.302Z,94326.19
2023-04-19T19:49:26.294Z,94323.00
2023-04-19T19:51:52.980Z,94331.56
2023-04-19T19:53:49.897Z,94323.91
2023-04-19T19:55:51.716Z,94323.97
2023-04-19T20:00:12.976Z,94325.16
2023-04-19T20:02:19.549Z,94320.03
2023-04-19T20:04:22.759Z,94326.56
2023-04-19T20:08:29.216Z,94328.16
2023-04-19T20:10:31.010Z,94327.84
2023-04-19T20:12:32.528Z,94324.66
2023-04-19T20:14:36.655Z,94325.94
2023-04-19T20:16:38.363Z,94326.59
2023-04-19T20:18:42.529Z,94325.31
2023-04-19T20:20:44.083Z,94328.56
2023-04-19T20:22:45.724Z,94331.19
2023-04-19T20:24:47.634Z,94327.56
2023-04-19T20:26:49.143Z,94325.84
2023-04-19T20:28:51.461Z,94327.28
2023-04-19T20:30:52.987Z,94332.53
2023-04-19T20:32:54.503Z,94329.91
2023-04-19T20:34:56.020Z,94326.47
2023-04-19T20:36:58.843Z,94321.56
2023-04-19T20:39:01.952Z,94326.28
2023-04-19T20:41:03.548Z,94331.09
2023-04-19T20:43:05.033Z,94323.28
2023-04-19T20:45:07.451Z,94318.69
2023-04-19T20:47:09.067Z,94312.31
2023-04-19T20:49:10.587Z,94313.97
2023-04-19T20:51:12.824Z,94325.53
2023-04-19T20:53:14.314Z,94321.22
2023-04-19T20:55:16.480Z,94315.44
2023-04-19T20:57:18.077Z,94316.53
2023-04-19T20:59:19.563Z,94318.34
2023-04-19T21:01:23.813Z,94315.78
2023-04-19T21:03:26.321Z,94315.25
2023-04-19T21:05:27.938Z,94316.22
2023-04-19T21:07:29.501Z,94319.91
2023-04-19T21:09:30.978Z,94324.69
2023-04-19T21:11:32.444Z,94329.78
2023-04-19T21:13:33.979Z,94324.88
2023-04-19T21:15:36.952Z,94319.91
2023-04-19T21:17:38.545Z,94318.47
2023-04-19T21:19:40.159Z,94312.75
2023-04-19T21:21:41.767Z,94315.69
2023-04-19T21:23:43.301Z,94316.00
2023-04-19T21:25:44.835Z,94313.41
2023-04-19T21:27:46.417Z,94318.00
2023-04-19T21:29:47.857Z,94322.97
2023-04-19T21:31:49.344Z,94326.91
2023-04-19T21:33:50.808Z,94333.31
2023-04-19T21:35:52.321Z,94323.69
2023-04-19T21:37:53.800Z,94323.09
2023-04-19T21:39:55.349Z,94326.06
2023-04-19T21:41:57.557Z,94324.75
2023-04-19T21:43:59.068Z,94332.25
2023-04-19T21:46:01.845Z,94339.34
2023-04-19T21:48:03.386Z,94330.03
2023-04-19T21:50:05.130Z,94325.34
2023-04-19T21:52:07.061Z,94321.22
2023-04-19T21:54:08.673Z,94326.94
2023-04-19T21:56:10.219Z,94324.31
2023-04-19T21:58:11.698Z,94327.47
2023-04-19T22:00:13.313Z,94324.47
2023-04-19T22:02:14.898Z,94328.75
2023-04-19T22:04:17.109Z,94324.31
2023-04-19T22:06:19.331Z,94328.59
2023-04-19T22:08:21.972Z,94320.34
2023-04-19T22:10:24.024Z,94329.72
2023-04-19T22:12:25.711Z,94328.38
2023-04-19T22:14:27.883Z,94320.81
2023-04-19T22:16:32.922Z,94322.00
2023-04-19T22:18:35.849Z,94321.63
2023-04-19T22:20:38.479Z,94329.34
2023-04-19T22:22:39.958Z,94320.31
2023-04-19T22:24:53.811Z,94325.72
2023-04-19T22:26:58.316Z,94318.84
2023-04-19T22:28:59.836Z,94320.81
2023-04-19T22:31:01.371Z,94317.69
2023-04-19T22:33:03.010Z,94322.13
2023-04-19T22:35:05.771Z,94312.59
2023-04-19T22:37:07.311Z,94316.03
2023-04-19T22:39:09.234Z,94313.06
2023-04-19T22:41:10.803Z,94319.50
2023-04-19T22:43:12.382Z,94310.28
2023-04-19T22:45:13.861Z,94310.09
2023-04-19T22:47:15.346Z,94311.25
2023-04-19T22:49:17.189Z,94321.47
2023-04-19T22:51:18.941Z,94315.59
2023-04-19T22:53:20.547Z,94312.72
2023-04-19T22:55:22.042Z,94313.19
2023-04-19T22:57:23.527Z,94309.56
2023-04-19T22:59:25.186Z,94309.81
2023-04-19T23:01:26.777Z,94309.13
2023-04-19T23:03:28.344Z,94309.13
2023-04-19T23:05:30.259Z,94305.81
2023-04-19T23:07:31.799Z,94306.75
2023-04-19T23:09:33.303Z,94307.72
2023-04-19T23:11:34.809Z,94302.09
2023-04-19T23:13:38.230Z,94304.09
2023-04-19T23:15:39.788Z,94304.88
2023-04-19T23:17:41.405Z,94301.28
2023-04-19T23:19:43.471Z,94307.50
2023-04-19T23:21:44.917Z,94297.56
2023-04-19T23:23:46.598Z,94291.31
2023-04-19T23:25:48.285Z,94292.63
2023-04-19T23:27:50.475Z,94291.59
2023-04-19T23:29:52.031Z,94289.56
2023-04-19T23:31:53.655Z,94289.56
2023-04-19T23:33:55.186Z,94289.94
2023-04-19T23:35:56.750Z,94293.72
2023-04-19T23:37:58.220Z,94289.31
2023-04-19T23:39:59.749Z,94284.94
2023-04-19T23:42:02.198Z,94287.56
2023-04-19T23:44:03.728Z,94282.63
2023-04-19T23:46:06.152Z,94286.59
2023-04-19T23:48:07.770Z,94279.19
2023-04-19T23:50:09.437Z,94277.22
2023-04-19T23:52:11.549Z,94280.94
2023-04-19T23:54:13.160Z,94276.44
2023-04-19T23:56:14.743Z,94275.81
2023-04-19T23:58:16.239Z,94277.91
